Time;durP1;ratioP1;P1;durP2;ratioP2;P2;SDS_P1;SDS_P2;PMS_P1;PMS_P2;Temp;Humidity;BMP_temperature;BMP_pressure;BME280_temperature;BME280_humidity;BME280_pressure;Samples;Min_cycle;Max_cycle;Signal;HPM_P1;HPM_P2
2021/12/13 00:01:01;;;;;;;74.75;39.88;;;3.00;99.90;;;;;;5032216;28;20492;-70
2021/12/13 00:03:30;;;;;;;95.82;45.67;;;3.00;99.90;;;;;;5038583;28;20026;-70
2021/12/13 00:06:04;;;;;;;82.75;41.45;;;3.00;99.90;;;;;;5040771;28;20021;-70
2021/12/13 00:08:33;;;;;;;67.85;37.08;;;3.00;99.90;;;;;;5033919;28;20030;-70
2021/12/13 00:11:25;;;;;;;93.25;44.92;;;3.10;99.90;;;;;;5046810;28;20022;-70
2021/12/13 00:13:55;;;;;;;78.47;40.40;;;3.00;99.90;;;;;;5032902;28;20030;-69
2021/12/13 00:16:41;;;;;;;91.75;44.20;;;3.10;99.90;;;;;;5039397;28;20117;-69
2021/12/13 00:19:10;;;;;;;75.72;40.33;;;3.10;99.90;;;;;;5029339;28;20450;-69
2021/12/13 00:22:01;;;;;;;91.07;43.65;;;3.10;99.90;;;;;;5031999;28;20033;-69
2021/12/13 00:24:35;;;;;;;85.88;42.95;;;3.10;99.90;;;;;;5039526;28;20026;-69
2021/12/13 00:27:10;;;;;;;64.07;36.45;;;3.10;99.90;;;;;;5020029;28;20023;-69
2021/12/13 00:30:30;;;;;;;83.97;42.25;;;3.10;99.90;;;;;;5034250;28;20029;-69
2021/12/13 00:33:33;;;;;;;65.50;36.28;;;3.10;99.90;;;;;;5000824;28;20026;-69
2021/12/13 00:36:27;;;;;;;54.60;33.40;;;3.10;99.90;;;;;;5042450;28;20112;-69
2021/12/13 00:38:58;;;;;;;81.60;39.40;;;3.20;99.90;;;;;;5032445;28;20029;-69
2021/12/13 00:41:28;;;;;;;86.35;41.35;;;3.10;99.90;;;;;;5032281;28;20521;-69
2021/12/13 00:44:05;;;;;;;91.13;42.63;;;3.10;99.90;;;;;;5041071;28;20025;-69
2021/12/13 00:46:31;;;;;;;64.43;36.28;;;3.20;99.90;;;;;;5038723;28;20067;-70
2021/12/13 00:49:00;;;;;;;66.70;36.88;;;3.10;99.90;;;;;;5035309;28;20021;-69
2021/12/13 00:51:33;;;;;;;60.00;34.10;;;3.20;99.90;;;;;;5039282;28;20037;-69
2021/12/13 00:54:03;;;;;;;65.05;34.45;;;3.10;99.90;;;;;;5032713;28;20029;-69
2021/12/13 00:57:08;;;;;;;94.00;40.67;;;3.20;99.90;;;;;;5038044;28;20079;-69
2021/12/13 00:59:40;;;;;;;115.03;46.22;;;3.20;99.90;;;;;;5024367;28;20403;-69
2021/12/13 01:02:16;;;;;;;156.60;54.80;;;3.20;99.90;;;;;;5034729;28;20025;-69
2021/12/13 01:04:57;;;;;;;163.55;56.33;;;3.20;99.90;;;;;;5037565;28;20131;-69
2021/12/13 01:07:46;;;;;;;104.68;45.47;;;3.20;99.90;;;;;;5039059;28;20142;-69
2021/12/13 01:10:49;;;;;;;133.88;49.85;;;3.20;99.90;;;;;;5027617;28;20495;-70
2021/12/13 01:13:31;;;;;;;92.95;42.25;;;3.20;99.90;;;;;;5034694;28;20071;-69
2021/12/13 01:19:23;;;;;;;186.60;58.20;;;3.20;99.90;;;;;;5034113;28;20032;-70
2021/12/13 01:21:55;;;;;;;110.68;46.67;;;3.20;99.90;;;;;;5033455;28;20111;-70
2021/12/13 01:25:16;;;;;;;101.53;43.85;;;3.20;99.90;;;;;;5042814;28;20152;-70
2021/12/13 01:27:35;;;;;;;202.80;60.45;;;3.20;99.90;;;;;;5044979;28;20433;-70
2021/12/13 01:30:03;;;;;;;143.40;51.53;;;3.20;99.90;;;;;;5029482;28;20422;-70
2021/12/13 01:32:43;;;;;;;106.80;45.70;;;3.20;99.90;;;;;;5035265;28;20135;-68
2021/12/13 01:35:14;;;;;;;154.90;52.97;;;3.20;99.90;;;;;;5036209;28;20128;-68
2021/12/13 01:37:41;;;;;;;152.57;52.63;;;3.20;99.90;;;;;;5041453;28;20410;-69
2021/12/13 01:40:12;;;;;;;91.10;39.45;;;3.20;99.90;;;;;;5038994;28;20021;-68
2021/12/13 01:42:39;;;;;;;165.23;52.53;;;3.20;99.90;;;;;;5033474;28;20033;-68
2021/12/13 01:45:11;;;;;;;228.90;63.72;;;3.20;99.90;;;;;;5037674;28;20490;-68
2021/12/13 01:47:41;;;;;;;113.40;45.63;;;3.20;99.90;;;;;;5034434;28;20225;-70
2021/12/13 01:50:17;;;;;;;115.70;43.80;;;3.20;99.90;;;;;;5046236;28;20026;-68
2021/12/13 01:52:45;;;;;;;73.65;36.90;;;3.20;99.90;;;;;;5033987;28;20108;-69
2021/12/13 01:55:16;;;;;;;147.15;52.17;;;3.40;99.90;;;;;;5043003;28;20036;-69
2021/12/13 01:57:50;;;;;;;94.43;41.55;;;3.30;99.90;;;;;;5032953;28;20054;-71
2021/12/13 02:01:11;;;;;;;89.38;40.67;;;3.30;99.90;;;;;;5039169;28;20030;-69
2021/12/13 02:03:17;;;;;;;60.25;32.63;;;3.30;99.90;;;;;;5038883;28;20466;-69
2021/12/13 02:05:48;;;;;;;114.50;45.47;;;3.40;99.90;;;;;;5033752;28;20022;-69
2021/12/13 02:08:17;;;;;;;140.90;50.38;;;3.40;99.90;;;;;;5043020;28;20029;-69
2021/12/13 02:10:48;;;;;;;78.80;37.53;;;3.40;99.90;;;;;;5032751;28;20026;-69
2021/12/13 02:13:20;;;;;;;82.18;39.67;;;3.30;99.90;;;;;;5036559;28;20044;-69
2021/12/13 02:18:37;;;;;;;95.97;41.42;;;3.50;99.90;;;;;;5031870;28;20405;-70
2021/12/13 02:21:22;;;;;;;100.40;41.10;;;3.50;99.90;;;;;;5033167;28;20409;-69
2021/12/13 02:23:51;;;;;;;63.15;33.67;;;3.50;99.90;;;;;;5033907;28;20014;-70
2021/12/13 02:26:18;;;;;;;72.28;35.13;;;3.40;99.90;;;;;;5037322;28;20026;-70
2021/12/13 02:28:47;;;;;;;149.52;51.30;;;3.50;99.90;;;;;;5045448;28;20032;-70
2021/12/13 02:31:20;;;;;;;102.65;42.40;;;3.40;99.90;;;;;;5033184;28;20109;-69
2021/12/13 02:33:57;;;;;;;104.85;43.35;;;3.40;99.90;;;;;;5043505;28;20022;-72
2021/12/13 02:36:32;;;;;;;143.20;48.08;;;3.30;99.90;;;;;;5035853;28;20021;-70
2021/12/13 02:39:00;;;;;;;85.00;38.60;;;3.40;99.90;;;;;;5018031;28;20096;-70
2021/12/13 02:41:29;;;;;;;135.25;49.92;;;3.60;99.90;;;;;;5031520;28;20408;-70
2021/12/13 02:44:00;;;;;;;85.30;39.78;;;3.50;99.90;;;;;;5029308;28;20032;-70
2021/12/13 02:46:26;;;;;;;146.57;49.55;;;3.40;99.90;;;;;;5013234;28;20113;-71
2021/12/13 02:48:56;;;;;;;157.20;53.53;;;3.40;99.90;;;;;;5026532;28;20029;-71
2021/12/13 02:51:34;;;;;;;94.43;41.53;;;3.50;99.90;;;;;;5013153;28;20068;-71
2021/12/13 02:54:09;;;;;;;201.45;52.90;;;3.40;99.90;;;;;;5030817;28;20488;-71
2021/12/13 02:56:46;;;;;;;206.05;53.05;;;3.40;99.90;;;;;;5032896;28;20026;-72
2021/12/13 02:59:13;;;;;;;109.90;44.47;;;3.40;99.90;;;;;;5020177;28;20112;-71
2021/12/13 03:01:52;;;;;;;59.60;30.95;;;3.50;99.90;;;;;;5032417;28;20057;-71
2021/12/13 03:04:22;;;;;;;143.10;48.03;;;3.50;99.90;;;;;;5032420;28;20026;-70
2021/12/13 03:06:53;;;;;;;75.15;35.47;;;3.60;99.90;;;;;;5018162;28;20379;-71
2021/12/13 03:09:23;;;;;;;63.20;32.47;;;3.50;99.90;;;;;;5032523;28;20100;-70
2021/12/13 03:11:51;;;;;;;122.18;44.10;;;3.50;99.90;;;;;;5027909;28;20026;-71
2021/12/13 03:14:21;;;;;;;213.63;55.67;;;3.50;99.90;;;;;;5012496;28;20030;-70
2021/12/13 03:16:49;;;;;;;85.40;37.58;;;3.50;99.90;;;;;;5031220;28;20049;-71
2021/12/13 03:19:40;;;;;;;217.70;54.60;;;3.50;99.90;;;;;;5020078;28;20021;-71
2021/12/13 03:22:37;;;;;;;386.27;72.65;;;3.50;99.90;;;;;;5021202;28;20493;-71
2021/12/13 03:25:27;;;;;;;377.60;83.47;;;3.50;99.90;;;;;;5032112;28;20064;-71
2021/12/13 03:28:11;;;;;;;106.80;45.60;;;3.40;99.90;;;;;;5028765;28;20080;-70
2021/12/13 03:30:52;;;;;;;209.95;58.92;;;3.40;99.90;;;;;;5012349;28;20100;-70
2021/12/13 03:33:24;;;;;;;118.88;41.13;;;3.40;99.90;;;;;;5020035;28;20037;-71
2021/12/13 03:35:57;;;;;;;159.75;44.88;;;3.40;99.90;;;;;;5027796;28;20033;-71
2021/12/13 03:38:27;;;;;;;174.40;46.47;;;3.40;99.90;;;;;;5031957;28;20040;-71
2021/12/13 03:40:56;;;;;;;94.65;35.88;;;3.60;99.90;;;;;;5031804;28;20071;-70
2021/12/13 03:43:30;;;;;;;136.38;42.55;;;3.50;99.90;;;;;;5031865;28;20025;-70
2021/12/13 03:46:01;;;;;;;174.52;44.88;;;3.50;99.90;;;;;;5031700;28;20032;-71
2021/12/13 03:48:28;;;;;;;84.72;35.70;;;3.60;99.90;;;;;;5031452;28;20021;-70
2021/12/13 03:51:00;;;;;;;74.65;33.28;;;3.50;99.90;;;;;;5031724;28;20506;-70
2021/12/13 03:53:30;;;;;;;105.93;39.05;;;3.50;99.90;;;;;;5031789;28;20039;-70
2021/12/13 03:56:03;;;;;;;158.68;46.97;;;3.50;99.90;;;;;;5031559;28;20499;-70
2021/12/13 03:58:33;;;;;;;234.48;57.58;;;3.60;99.90;;;;;;5031692;28;20033;-69
2021/12/13 04:01:12;;;;;;;322.45;70.30;;;3.50;99.90;;;;;;5031593;28;20021;-68
2021/12/13 04:03:38;;;;;;;112.50;41.40;;;3.50;99.90;;;;;;5031435;28;20030;-69
2021/12/13 04:06:04;;;;;;;132.75;42.47;;;3.50;99.90;;;;;;5031591;28;20030;-71
2021/12/13 04:08:31;;;;;;;177.05;47.53;;;3.50;99.90;;;;;;5012975;28;20022;-70
2021/12/13 04:11:06;;;;;;;125.32;43.03;;;3.50;99.90;;;;;;5011804;28;20037;-71
2021/12/13 04:13:52;;;;;;;158.35;46.50;;;3.60;99.90;;;;;;5030882;28;20557;-69
2021/12/13 04:16:35;;;;;;;182.70;50.00;;;3.50;99.90;;;;;;5016665;28;20030;-70
2021/12/13 04:19:11;;;;;;;90.93;35.50;;;3.50;99.90;;;;;;5022536;28;20033;-69
2021/12/13 04:21:36;;;;;;;;;;;3.50;99.90;;;;;;5018551;28;20395;-69
2021/12/13 04:24:05;;;;;;;289.70;61.53;;;3.50;99.90;;;;;;5031433;28;19905;-68
2021/12/13 04:26:38;;;;;;;193.55;50.13;;;3.60;99.90;;;;;;5012038;28;20022;-68
2021/12/13 04:29:10;;;;;;;199.18;49.97;;;3.60;99.90;;;;;;5025505;28;20175;-68
2021/12/13 04:31:36;;;;;;;148.07;45.15;;;3.60;99.90;;;;;;5021984;28;20026;-69
2021/12/13 04:34:05;;;;;;;157.50;46.50;;;3.50;99.90;;;;;;5030380;28;20020;-69
2021/12/13 04:36:47;;;;;;;133.80;44.60;;;3.60;99.90;;;;;;5030218;28;20175;-69
2021/12/13 04:39:31;;;;;;;130.40;43.70;;;3.50;99.90;;;;;;5031462;28;20048;-70
2021/12/13 04:42:00;;;;;;;130.05;42.47;;;3.60;99.90;;;;;;5029224;28;20116;-69
2021/12/13 04:44:43;;;;;;;319.40;67.10;;;3.70;99.90;;;;;;5030964;28;20108;-69
2021/12/13 04:47:14;;;;;;;129.25;43.47;;;3.60;99.90;;;;;;5031279;28;20032;-69
2021/12/13 04:49:46;;;;;;;251.75;58.45;;;3.60;99.90;;;;;;5031402;28;20472;-70
2021/12/13 04:52:15;;;;;;;268.17;64.57;;;3.60;99.90;;;;;;5031044;28;20029;-71
2021/12/13 04:54:44;;;;;;;120.10;42.92;;;3.60;99.90;;;;;;5029711;28;20041;-70
2021/12/13 04:57:10;;;;;;;134.13;43.47;;;3.70;99.90;;;;;;5031310;28;20041;-70
2021/12/13 04:59:37;;;;;;;150.82;47.00;;;3.60;99.90;;;;;;5032199;28;20033;-69
2021/12/13 05:02:06;;;;;;;144.68;46.00;;;3.60;99.90;;;;;;5034766;28;20426;-69
2021/12/13 05:04:33;;;;;;;156.48;46.45;;;3.70;99.90;;;;;;5034600;28;20029;-69
2021/12/13 05:07:01;;;;;;;301.83;64.15;;;3.70;99.90;;;;;;5033550;28;20032;-70
2021/12/13 05:09:29;;;;;;;179.63;49.75;;;3.70;99.90;;;;;;5023100;28;20032;-70
2021/12/13 05:12:13;;;;;;;144.45;46.15;;;3.80;99.90;;;;;;5014846;28;20032;-70
2021/12/13 05:14:45;;;;;;;163.02;44.08;;;3.60;99.90;;;;;;5029098;28;20064;-69
2021/12/13 05:17:34;;;;;;;145.20;46.53;;;3.60;99.90;;;;;;5034594;28;20037;-69
2021/12/13 05:20:16;;;;;;;253.38;58.67;;;3.60;99.90;;;;;;5015173;28;20084;-70
2021/12/13 05:22:50;;;;;;;120.75;41.55;;;3.70;99.90;;;;;;5014541;28;20028;-71
2021/12/13 05:25:25;;;;;;;318.92;71.22;;;3.70;99.90;;;;;;5013194;28;20444;-70
2021/12/13 05:27:59;;;;;;;529.27;201.90;;;3.70;99.90;;;;;;5014742;28;20030;-71
2021/12/13 05:30:25;;;;;;;336.45;71.30;;;3.70;99.90;;;;;;5013365;28;20667;-71
2021/12/13 05:32:59;;;;;;;142.25;48.95;;;3.70;99.90;;;;;;5027956;28;20141;-71
2021/12/13 05:35:35;;;;;;;107.35;39.30;;;3.70;99.90;;;;;;5035754;28;20085;-70
2021/12/13 05:38:06;;;;;;;181.38;47.22;;;3.70;99.90;;;;;;5034212;28;20021;-70
2021/12/13 05:40:37;;;;;;;147.70;42.83;;;3.70;99.90;;;;;;5034055;28;20503;-70
2021/12/13 05:43:25;;;;;;;195.93;47.92;;;3.80;99.90;;;;;;5032853;28;20045;-68
2021/12/13 05:46:02;;;;;;;346.52;64.57;;;3.80;99.90;;;;;;5033851;28;20029;-69
2021/12/13 05:48:34;;;;;;;267.77;64.00;;;3.80;99.90;;;;;;5021157;28;20423;-69
2021/12/13 05:51:03;;;;;;;287.10;67.15;;;3.80;99.90;;;;;;5012778;28;20488;-71
2021/12/13 05:53:36;;;;;;;226.82;52.13;;;3.80;99.90;;;;;;5014206;28;20026;-70
2021/12/13 05:56:17;;;;;;;232.77;58.63;;;3.70;99.90;;;;;;5012790;28;20036;-70
2021/12/13 05:58:57;;;;;;;456.85;77.55;;;3.80;99.90;;;;;;5013972;28;20440;-70
2021/12/13 06:01:27;;;;;;;294.23;68.22;;;3.80;99.90;;;;;;5023494;28;20067;-70
2021/12/13 06:04:09;;;;;;;242.98;59.80;;;3.70;99.90;;;;;;5026021;28;20029;-71
2021/12/13 06:06:45;;;;;;;261.05;57.05;;;3.70;99.90;;;;;;5032352;28;20049;-71
2021/12/13 06:09:31;;;;;;;;;;;3.70;99.90;;;;;;5034191;28;20061;-72
2021/12/13 06:12:04;;;;;;;215.50;53.13;;;3.80;99.90;;;;;;5031760;28;19924;-71
2021/12/13 06:14:29;;;;;;;177.50;49.28;;;3.70;99.90;;;;;;5033780;28;20101;-71
2021/12/13 06:17:10;;;;;;;124.55;40.58;;;3.80;99.90;;;;;;5013780;28;20096;-71
2021/12/13 06:19:41;;;;;;;191.32;50.78;;;3.80;99.90;;;;;;5013536;28;20480;-71
2021/12/13 06:22:12;;;;;;;212.63;54.28;;;3.80;99.90;;;;;;5013555;28;20037;-71
2021/12/13 06:24:41;;;;;;;100.50;38.47;;;3.80;99.90;;;;;;5015951;28;20022;-72
2021/12/13 06:27:08;;;;;;;112.80;40.38;;;3.80;99.90;;;;;;5033344;28;20028;-71
2021/12/13 06:29:51;;;;;;;171.82;50.25;;;3.80;99.90;;;;;;5015655;28;20435;-70
2021/12/13 06:32:30;;;;;;;169.10;49.08;;;3.80;99.90;;;;;;5013522;28;20030;-70
2021/12/13 06:34:59;;;;;;;145.70;46.88;;;3.80;99.90;;;;;;5024899;28;20116;-70
2021/12/13 06:37:35;;;;;;;138.63;49.33;;;3.80;99.90;;;;;;5031207;28;20490;-70
2021/12/13 06:40:27;;;;;;;128.35;46.05;;;3.80;99.90;;;;;;5013320;28;20029;-70
2021/12/13 06:43:01;;;;;;;110.18;42.95;;;3.80;99.90;;;;;;5020341;28;20124;-69
2021/12/13 06:45:32;;;;;;;84.43;38.83;;;3.80;99.90;;;;;;5018206;28;20045;-68
2021/12/13 06:48:01;;;;;;;98.18;41.40;;;3.80;99.90;;;;;;5013213;28;20153;-71
2021/12/13 06:50:31;;;;;;;138.07;51.50;;;3.90;99.90;;;;;;5013045;28;20090;-70
2021/12/13 06:53:15;;;;;;;150.75;54.03;;;3.80;99.90;;;;;;5022923;28;20026;-70
2021/12/13 06:55:42;;;;;;;151.90;51.45;;;3.90;99.90;;;;;;5026140;28;20026;-70
2021/12/13 06:58:19;;;;;;;123.45;47.60;;;3.80;99.90;;;;;;5013004;28;20476;-71
2021/12/13 07:00:47;;;;;;;168.80;54.90;;;3.90;99.90;;;;;;5019855;28;20030;-70
2021/12/13 07:03:21;;;;;;;93.28;43.55;;;3.90;99.90;;;;;;5032538;28;20033;-70
2021/12/13 07:05:54;;;;;;;167.15;55.15;;;4.00;99.90;;;;;;5032461;28;20529;-70
2021/12/13 07:08:22;;;;;;;149.63;52.50;;;3.90;99.90;;;;;;5032523;28;20036;-70
2021/12/13 07:10:57;;;;;;;94.47;43.53;;;4.00;99.90;;;;;;5032471;28;20026;-71
2021/12/13 07:13:28;;;;;;;99.53;43.50;;;4.00;99.90;;;;;;5032392;28;20025;-71
2021/12/13 07:16:02;;;;;;;137.85;54.80;;;4.00;99.90;;;;;;5032175;28;20030;-71
2021/12/13 07:18:41;;;;;;;97.80;40.63;;;4.00;99.90;;;;;;5032341;28;20384;-70
2021/12/13 07:21:11;;;;;;;117.55;44.28;;;4.00;99.90;;;;;;5030881;28;20180;-71
2021/12/13 07:24:02;;;;;;;101.25;41.80;;;3.90;99.90;;;;;;5031650;28;20096;-71
2021/12/13 07:26:54;;;;;;;97.55;41.63;;;3.90;99.90;;;;;;5027551;28;20152;-71
2021/12/13 07:29:28;;;;;;;98.95;41.70;;;4.00;99.90;;;;;;5024890;28;20029;-71
2021/12/13 07:32:17;;;;;;;140.30;50.70;;;4.00;99.90;;;;;;5011077;28;20026;-70
2021/12/13 07:35:18;;;;;;;127.80;47.95;;;4.10;99.90;;;;;;5031455;28;20028;-70
2021/12/13 07:37:47;;;;;;;111.05;47.60;;;4.00;99.90;;;;;;5028873;28;20041;-70
2021/12/13 07:40:21;;;;;;;120.97;49.47;;;4.00;99.90;;;;;;5034810;28;20499;-70
2021/12/13 07:43:08;;;;;;;171.50;58.60;;;4.10;99.90;;;;;;5031931;28;20372;-70
2021/12/13 07:45:46;;;;;;;81.20;40.20;;;4.10;99.90;;;;;;5035107;28;20025;-70
2021/12/13 07:48:34;;;;;;;161.38;54.83;;;4.10;99.90;;;;;;5034957;28;20028;-70
2021/12/13 07:51:13;;;;;;;279.15;77.93;;;4.10;99.90;;;;;;5027910;28;20022;-71
2021/12/13 07:53:47;;;;;;;255.00;75.40;;;4.10;99.90;;;;;;5030387;28;20017;-71
2021/12/13 07:56:33;;;;;;;99.93;43.72;;;4.00;99.90;;;;;;5032127;28;20025;-70
2021/12/13 07:59:10;;;;;;;165.27;63.60;;;4.00;99.90;;;;;;5044778;28;20049;-70
2021/12/13 08:01:43;;;;;;;117.32;52.80;;;4.00;99.90;;;;;;5028988;28;20117;-71
2021/12/13 08:04:13;;;;;;;101.80;51.92;;;4.10;99.90;;;;;;5030615;28;20044;-71
2021/12/13 08:06:44;;;;;;;126.03;55.78;;;4.10;99.90;;;;;;5030524;28;20101;-71
2021/12/13 08:09:14;;;;;;;174.88;70.05;;;4.10;99.90;;;;;;5039029;28;20101;-71
2021/12/13 08:11:45;;;;;;;281.63;103.35;;;4.10;99.90;;;;;;5037526;28;20427;-70
2021/12/13 08:14:12;;;;;;;225.57;99.03;;;4.20;99.90;;;;;;5038515;28;20025;-70
2021/12/13 08:16:42;;;;;;;170.65;76.70;;;4.20;99.90;;;;;;5032979;28;20041;-71
2021/12/13 08:19:33;;;;;;;183.02;77.68;;;4.20;99.90;;;;;;5031232;28;20032;-71
2021/12/13 08:22:01;;;;;;;90.65;46.00;;;4.20;99.90;;;;;;5033879;28;20510;-71
2021/12/13 08:24:32;;;;;;;107.78;44.85;;;4.20;99.90;;;;;;5036863;28;20026;-71
2021/12/13 08:27:03;;;;;;;147.90;52.22;;;4.20;99.90;;;;;;5034210;28;20017;-70
2021/12/13 08:29:33;;;;;;;166.73;54.15;;;4.30;99.90;;;;;;5032085;28;20017;-70
2021/12/13 08:32:04;;;;;;;95.30;41.40;;;4.30;99.90;;;;;;5040416;28;20101;-71
2021/12/13 08:34:34;;;;;;;115.80;45.92;;;4.40;99.90;;;;;;5035737;28;20081;-71
2021/12/13 08:37:09;;;;;;;97.03;43.13;;;4.40;99.90;;;;;;5030638;28;20369;-70
2021/12/13 08:39:37;;;;;;;79.45;38.80;;;4.40;99.90;;;;;;5039539;28;20373;-71
2021/12/13 08:42:16;;;;;;;103.97;46.90;;;4.40;99.90;;;;;;5036100;28;20103;-71
2021/12/13 08:44:51;;;;;;;82.55;41.22;;;4.50;99.90;;;;;;5047723;28;20013;-68
2021/12/13 08:47:21;;;;;;;67.13;36.85;;;4.50;99.90;;;;;;5038275;28;20060;-71
2021/12/13 08:50:00;;;;;;;96.75;44.03;;;4.60;99.90;;;;;;5041374;28;20021;-70
2021/12/13 08:52:31;;;;;;;147.30;56.63;;;4.50;99.90;;;;;;5035998;28;20419;-71
2021/12/13 08:55:12;;;;;;;104.82;47.00;;;4.60;99.90;;;;;;5034052;28;20037;-70
2021/12/13 08:57:37;;;;;;;135.88;50.90;;;4.70;99.90;;;;;;5038977;28;20033;-71
2021/12/13 09:00:12;;;;;;;86.65;41.67;;;4.70;99.90;;;;;;5038204;28;20036;-70
2021/12/13 09:02:41;;;;;;;81.60;40.25;;;4.70;99.90;;;;;;5039496;28;20079;-71
2021/12/13 09:05:15;;;;;;;125.95;48.85;;;4.80;99.90;;;;;;5037030;28;20040;-71
2021/12/13 09:08:12;;;;;;;131.25;50.70;;;4.70;99.90;;;;;;5035218;28;20030;-71
2021/12/13 09:10:48;;;;;;;;;;;4.70;99.90;;;;;;5039807;28;20113;-71
2021/12/13 09:13:18;;;;;;;81.45;38.92;;;4.70;99.90;;;;;;5043456;28;19913;-70
2021/12/13 09:15:48;;;;;;;121.75;48.45;;;4.80;99.90;;;;;;5041142;28;20487;-71
2021/12/13 09:18:21;;;;;;;77.78;38.42;;;4.80;99.90;;;;;;5035959;28;20026;-72
2021/12/13 09:20:53;;;;;;;166.35;54.55;;;5.00;99.90;;;;;;5036783;28;20116;-70
2021/12/13 09:23:25;;;;;;;136.25;55.88;;;4.90;99.90;;;;;;5032846;28;20021;-71
2021/12/13 09:26:05;;;;;;;121.45;46.25;;;5.00;99.90;;;;;;5037477;28;20022;-71
2021/12/13 09:28:35;;;;;;;136.32;49.38;;;4.90;99.90;;;;;;5037737;28;20064;-70
2021/12/13 09:31:35;;;;;;;140.75;54.53;;;4.90;99.90;;;;;;5033744;28;20030;-70
2021/12/13 09:34:14;;;;;;;80.15;39.53;;;5.00;99.90;;;;;;5026981;28;20099;-70
2021/12/13 09:36:43;;;;;;;133.75;51.65;;;5.00;99.90;;;;;;5034098;28;20841;-72
2021/12/13 09:39:12;;;;;;;93.65;44.92;;;5.00;99.90;;;;;;5040558;28;20083;-72
2021/12/13 09:42:01;;;;;;;141.85;59.60;;;5.10;99.90;;;;;;5038981;28;20116;-71
2021/12/13 09:44:44;;;;;;;108.28;45.78;;;5.10;99.90;;;;;;5037471;28;20104;-72
2021/12/13 09:47:17;;;;;;;109.72;44.72;;;5.10;99.90;;;;;;5036828;28;20125;-71
2021/12/13 09:49:47;;;;;;;84.72;37.85;;;5.10;99.90;;;;;;5033765;28;20079;-71
2021/12/13 09:52:31;;;;;;;65.55;29.05;;;5.20;99.90;;;;;;5033513;28;20566;-71
2021/12/13 09:55:07;;;;;;;72.75;37.20;;;5.20;99.90;;;;;;5044085;28;20029;-71
2021/12/13 09:58:05;;;;;;;105.65;41.78;;;5.30;99.90;;;;;;5046182;28;20075;-71
2021/12/13 10:00:30;;;;;;;86.95;36.88;;;5.30;99.90;;;;;;5025187;28;20045;-72
2021/12/13 10:03:05;;;;;;;64.00;32.25;;;5.30;99.90;;;;;;5032241;28;20033;-69
2021/12/13 10:05:38;;;;;;;90.75;38.83;;;5.30;99.90;;;;;;5042154;28;20022;-70
2021/12/13 10:08:10;;;;;;;79.00;38.72;;;5.30;99.90;;;;;;5033393;28;20022;-71
2021/12/13 10:10:52;;;;;;;72.72;35.25;;;5.40;99.90;;;;;;5033492;28;20028;-71
2021/12/13 10:13:26;;;;;;;66.07;33.33;;;5.40;99.90;;;;;;5033265;28;20026;-70
2021/12/13 10:15:58;;;;;;;70.72;32.53;;;5.40;99.90;;;;;;5046541;28;20017;-70
2021/12/13 10:18:29;;;;;;;60.22;30.17;;;5.40;99.90;;;;;;5034064;28;20022;-70
2021/12/13 10:20:58;;;;;;;56.00;28.60;;;5.40;99.90;;;;;;5032859;28;20025;-71
2021/12/13 10:23:32;;;;;;;67.00;30.90;;;5.40;99.90;;;;;;5032258;28;20021;-71
2021/12/13 10:26:00;;;;;;;50.25;27.15;;;5.40;99.90;;;;;;5040656;28;20032;-71
2021/12/13 10:28:30;;;;;;;40.55;23.83;;;5.40;99.90;;;;;;5036582;28;20100;-71
2021/12/13 10:31:01;;;;;;;47.70;25.77;;;5.40;99.90;;;;;;5037130;28;20040;-70
2021/12/13 10:33:28;;;;;;;37.92;23.42;;;5.50;99.90;;;;;;5038138;28;20040;-71
2021/12/13 10:35:55;;;;;;;39.90;24.50;;;5.50;99.90;;;;;;5036350;28;20030;-70
2021/12/13 10:38:44;;;;;;;33.50;21.45;;;5.60;99.90;;;;;;5035265;28;20029;-71
2021/12/13 10:41:33;;;;;;;46.03;27.33;;;5.70;99.90;;;;;;5034483;28;20464;-71
2021/12/13 10:44:08;;;;;;;49.28;26.70;;;5.80;99.90;;;;;;5049237;28;20037;-71
2021/12/13 10:46:37;;;;;;;44.25;27.98;;;5.80;99.90;;;;;;5041408;28;20092;-71
2021/12/13 10:49:12;;;;;;;49.50;28.50;;;5.80;99.90;;;;;;5031212;28;20104;-70
2021/12/13 10:51:42;;;;;;;36.30;23.35;;;5.90;99.90;;;;;;5031212;28;20492;-71
2021/12/13 10:54:11;;;;;;;42.10;26.30;;;5.80;99.90;;;;;;5034721;28;20520;-71
2021/12/13 10:56:48;;;;;;;39.78;25.55;;;5.80;99.90;;;;;;5037823;28;20029;-71
2021/12/13 10:59:20;;;;;;;37.85;27.10;;;5.80;99.90;;;;;;5032040;28;20029;-72
2021/12/13 11:01:50;;;;;;;36.88;26.52;;;5.90;99.90;;;;;;5032221;28;20088;-71
2021/12/13 11:04:22;;;;;;;37.15;27.23;;;5.90;99.90;;;;;;5037027;28;20017;-71
2021/12/13 11:06:48;;;;;;;35.85;24.70;;;5.90;99.90;;;;;;5030509;28;20029;-71
2021/12/13 11:09:19;;;;;;;36.67;24.40;;;5.90;99.90;;;;;;5033945;28;20093;-71
2021/12/13 11:12:03;;;;;;;27.98;20.33;;;5.90;99.90;;;;;;5036714;28;20098;-71
2021/12/13 11:14:31;;;;;;;36.60;26.13;;;6.00;99.90;;;;;;5026716;28;20488;-71
2021/12/13 11:17:00;;;;;;;31.17;23.58;;;5.90;99.90;;;;;;5027511;28;20053;-71
2021/12/13 11:19:32;;;;;;;38.53;26.63;;;5.90;99.90;;;;;;5022561;28;20037;-71
2021/12/13 11:22:02;;;;;;;30.50;23.45;;;6.00;99.90;;;;;;5031980;28;20108;-70
2021/12/13 11:24:36;;;;;;;34.40;23.98;;;5.90;99.90;;;;;;5035377;28;20079;-71
2021/12/13 11:27:11;;;;;;;28.25;20.63;;;5.80;99.90;;;;;;5032167;28;20032;-71
2021/12/13 11:29:39;;;;;;;34.40;23.48;;;5.90;99.90;;;;;;5037767;28;20233;-71
2021/12/13 11:32:39;;;;;;;31.45;21.67;;;6.00;99.90;;;;;;5039338;28;20018;-71
2021/12/13 11:35:08;;;;;;;29.75;22.65;;;6.00;99.90;;;;;;5028133;28;20025;-71
2021/12/13 11:38:03;;;;;;;34.10;24.25;;;6.00;99.90;;;;;;5039563;28;20021;-71
2021/12/13 11:41:04;;;;;;;36.25;24.98;;;6.00;99.90;;;;;;5031841;28;20455;-71
2021/12/13 11:44:07;;;;;;;30.45;23.00;;;6.10;99.90;;;;;;5043197;28;20032;-71
2021/12/13 11:47:18;;;;;;;25.00;19.00;;;6.00;99.90;;;;;;5021185;28;20048;-71
2021/12/13 11:50:01;;;;;;;29.73;21.10;;;6.10;99.90;;;;;;5031105;28;20041;-71
2021/12/13 11:52:42;;;;;;;30.83;20.92;;;6.10;99.90;;;;;;5032229;28;20037;-71
2021/12/13 11:55:29;;;;;;;28.05;20.70;;;6.00;99.90;;;;;;5030651;28;20033;-71
2021/12/13 11:58:08;;;;;;;31.90;21.83;;;6.00;99.90;;;;;;5033909;28;20503;-71
2021/12/13 12:01:04;;;;;;;23.85;17.77;;;6.00;99.90;;;;;;5030416;28;20029;-71
2021/12/13 12:04:07;;;;;;;19.98;16.27;;;6.00;99.90;;;;;;5031445;28;20036;-71
2021/12/13 12:07:10;;;;;;;24.65;18.30;;;6.00;99.90;;;;;;5032034;28;20025;-70
2021/12/13 12:10:05;;;;;;;26.30;18.73;;;6.00;99.90;;;;;;5047262;28;20493;-71
2021/12/13 12:12:39;;;;;;;20.63;17.35;;;6.20;99.90;;;;;;5030107;28;20021;-71
2021/12/13 12:15:07;;;;;;;31.55;21.67;;;6.10;99.90;;;;;;5032925;28;20063;-71
2021/12/13 12:17:34;;;;;;;33.55;22.27;;;6.10;99.90;;;;;;5036868;28;20034;-71
2021/12/13 12:20:00;;;;;;;35.58;25.30;;;6.10;99.90;;;;;;5027933;28;20025;-71
2021/12/13 12:22:47;;;;;;;43.55;30.33;;;6.10;99.90;;;;;;5033782;28;20041;-70
2021/12/13 12:25:13;;;;;;;47.53;34.72;;;6.10;99.90;;;;;;5031576;28;20025;-71
2021/12/13 12:27:39;;;;;;;47.28;33.47;;;6.10;99.90;;;;;;5036373;28;20033;-71
2021/12/13 12:30:10;;;;;;;42.35;25.95;;;6.10;99.90;;;;;;5026189;28;20022;-71
2021/12/13 12:32:42;;;;;;;23.50;19.67;;;6.10;99.90;;;;;;5027799;28;20116;-71
2021/12/13 12:35:14;;;;;;;27.45;20.95;;;6.00;99.90;;;;;;5031056;28;20087;-71
2021/12/13 12:37:59;;;;;;;29.88;21.38;;;6.00;99.90;;;;;;5031058;28;20064;-70
2021/12/13 12:40:35;;;;;;;34.15;24.00;;;6.00;99.90;;;;;;5032511;28;21177;-71
2021/12/13 12:43:06;;;;;;;;;;;6.00;99.90;;;;;;5037421;28;20467;-71
2021/12/13 12:45:43;;;;;;;38.78;26.52;;;6.10;99.90;;;;;;5027846;28;19909;-71
2021/12/13 12:48:33;;;;;;;39.33;27.77;;;6.00;99.90;;;;;;5027601;28;20533;-71
2021/12/13 12:51:07;;;;;;;47.67;29.08;;;6.10;99.90;;;;;;5024891;28;20033;-71
2021/12/13 12:54:05;;;;;;;40.28;25.80;;;6.10;99.90;;;;;;5055491;28;20025;-71
2021/12/13 12:56:36;;;;;;;39.63;25.98;;;6.10;99.90;;;;;;5029679;28;20546;-71
2021/12/13 12:59:07;;;;;;;35.03;24.13;;;6.10;99.90;;;;;;5028202;28;20029;-71
2021/12/13 13:01:36;;;;;;;41.03;27.25;;;6.10;99.90;;;;;;5047448;28;20022;-71
2021/12/13 13:04:08;;;;;;;36.78;25.80;;;6.00;99.90;;;;;;5028195;28;20044;-71
2021/12/13 13:06:33;;;;;;;46.92;28.70;;;6.10;99.90;;;;;;5030541;28;20466;-72
2021/12/13 13:08:59;;;;;;;50.28;31.70;;;6.20;99.90;;;;;;5034269;28;20025;-71
2021/12/13 13:11:29;;;;;;;46.53;29.75;;;6.20;99.90;;;;;;5033651;28;20075;-71
2021/12/13 13:14:09;;;;;;;58.47;32.90;;;6.20;99.90;;;;;;5030270;28;20472;-71
2021/12/13 13:16:38;;;;;;;53.03;32.65;;;6.20;99.90;;;;;;5036371;28;20022;-71
2021/12/13 13:19:05;;;;;;;58.88;34.03;;;6.10;99.90;;;;;;5027468;28;20022;-71
2021/12/13 13:21:40;;;;;;;52.58;32.00;;;6.10;99.90;;;;;;5029564;28;20026;-71